Sign in

Advertise on goboko.com

You can reach many thousands of active pilots each month by advertising on goboko.com.

Please contact us for details.

Advertising

Info

Aviation weather - KJYO

METAR KJYO 181815Z AUTO 34015G21KT 10SM OVC036 03/M02 A3012 RMK AO2

TAF KIAD 171735Z 1718/1824 29014G23KT P6SM SCT050 FM180000 30010KT P6SM FEW050 FM180300 30009KT P6SM FEW250

ADDS Experimental. Do not use for flight-related decisions.

Javascript required. Ce site nécessite javascript